Time;durP1;ratioP1;P1;durP2;ratioP2;P2;SDS_P1;SDS_P2;PMS_P1;PMS_P2;Temp;Humidity;BMP_temperature;BMP_pressure;BME280_temperature;BME280_humidity;BME280_pressure;Samples;Min_cycle;Max_cycle;Signal;HPM_P1;HPM_P2
2023/03/02 00:01:18;;;;;;;20.63;17.23;;;3.60;65.40;;;;;;5099731;28;20194;-86
2023/03/02 00:03:44;;;;;;;21.73;18.30;;;3.60;65.70;;;;;;5102432;28;20218;-87
2023/03/02 00:06:09;;;;;;;20.27;17.23;;;3.50;65.60;;;;;;5104186;28;20249;-87
2023/03/02 00:08:37;;;;;;;22.57;18.10;;;3.60;65.80;;;;;;5098417;28;20616;-88
2023/03/02 00:11:03;;;;;;;20.77;17.30;;;3.60;65.80;;;;;;5097953;28;20175;-87
2023/03/02 00:13:30;;;;;;;21.43;18.60;;;3.50;65.60;;;;;;5096964;28;20210;-87
2023/03/02 00:15:55;;;;;;;20.97;17.27;;;3.50;65.60;;;;;;5096546;28;20175;-86
2023/03/02 00:18:21;;;;;;;23.37;18.30;;;3.50;65.90;;;;;;5096331;28;20217;-85
2023/03/02 00:20:46;;;;;;;22.77;18.13;;;3.50;66.10;;;;;;5096122;28;20206;-87
2023/03/02 00:23:13;;;;;;;21.30;17.83;;;3.40;65.90;;;;;;5097175;28;20202;-86
2023/03/02 00:25:39;;;;;;;23.10;18.73;;;3.40;66.30;;;;;;5096693;28;20191;-87
2023/03/02 00:28:05;;;;;;;23.00;18.70;;;3.40;66.30;;;;;;5097376;28;20228;-88
2023/03/02 00:30:30;;;;;;;21.67;18.47;;;3.50;66.00;;;;;;5095645;28;20178;-88
2023/03/02 00:32:57;;;;;;;21.40;16.90;;;3.50;65.90;;;;;;5095719;28;20709;-89
2023/03/02 00:35:24;;;;;;;19.63;17.50;;;3.50;66.40;;;;;;5096041;28;20220;-88
2023/03/02 00:37:50;;;;;;;22.37;18.07;;;3.50;65.90;;;;;;5096600;28;20255;-87
2023/03/02 00:40:15;;;;;;;22.27;17.53;;;3.40;65.80;;;;;;5095541;28;20183;-88
2023/03/02 00:42:41;;;;;;;22.27;17.50;;;3.30;66.50;;;;;;5094944;28;20189;-87
2023/03/02 00:45:07;;;;;;;23.20;17.00;;;3.30;66.80;;;;;;5095871;28;20237;-88
2023/03/02 00:47:34;;;;;;;22.87;16.77;;;3.20;67.10;;;;;;5096863;28;20198;-87
2023/03/02 00:50:01;;;;;;;24.87;17.57;;;3.20;67.30;;;;;;5097086;28;20183;-88
2023/03/02 00:52:29;;;;;;;21.30;17.57;;;3.10;67.80;;;;;;5089106;28;20183;-87
2023/03/02 00:54:54;;;;;;;22.00;17.90;;;3.10;67.90;;;;;;5096585;28;20195;-87
2023/03/02 00:57:20;;;;;;;20.63;17.10;;;3.10;68.20;;;;;;5097138;28;20274;-87
2023/03/02 00:59:45;;;;;;;21.57;16.77;;;3.00;68.10;;;;;;5097284;28;20178;-87
2023/03/02 01:02:11;;;;;;;19.70;16.93;;;3.00;68.10;;;;;;5097197;28;20190;-87
2023/03/02 01:04:40;;;;;;;23.03;18.07;;;3.00;68.40;;;;;;5095602;28;20214;-87
2023/03/02 01:07:09;;;;;;;21.57;18.23;;;3.00;68.40;;;;;;5096699;28;20659;-87
2023/03/02 01:09:36;;;;;;;20.40;17.23;;;2.90;68.70;;;;;;5096587;28;20235;-87
2023/03/02 01:12:02;;;;;;;20.07;16.27;;;2.90;69.00;;;;;;5096215;28;20598;-87
2023/03/02 01:14:28;;;;;;;19.57;17.17;;;2.80;69.30;;;;;;5094738;28;20289;-86
2023/03/02 01:16:54;;;;;;;23.00;19.03;;;2.80;69.30;;;;;;5095123;28;20213;-87
2023/03/02 01:19:19;;;;;;;18.67;15.93;;;2.70;69.50;;;;;;5094024;28;20232;-88
2023/03/02 01:21:45;;;;;;;24.23;18.07;;;2.70;69.80;;;;;;5076252;28;20187;-86
2023/03/02 01:24:10;;;;;;;21.87;18.37;;;2.70;69.70;;;;;;5093547;28;20203;-86
2023/03/02 01:26:36;;;;;;;20.07;16.80;;;2.70;69.50;;;;;;5093824;28;20189;-87
2023/03/02 01:29:03;;;;;;;21.27;17.83;;;2.70;69.70;;;;;;5094695;28;20186;-87
2023/03/02 01:31:29;;;;;;;20.37;17.40;;;2.70;70.00;;;;;;5096117;28;20204;-87
2023/03/02 01:33:54;;;;;;;21.43;17.30;;;2.70;69.70;;;;;;5096023;28;20198;-87
2023/03/02 01:36:21;;;;;;;20.27;17.27;;;2.70;69.80;;;;;;5096220;28;20179;-88
2023/03/02 01:38:47;;;;;;;19.27;17.13;;;2.60;69.70;;;;;;5095980;28;20162;-87
2023/03/02 01:41:13;;;;;;;21.13;17.67;;;2.60;69.80;;;;;;5095558;28;20278;-86
2023/03/02 01:43:38;;;;;;;19.47;17.37;;;2.70;69.30;;;;;;5103083;28;20194;-85
2023/03/02 01:46:25;;;;;;;21.07;16.57;;;2.80;69.10;;;;;;5096686;28;20179;-87
2023/03/02 01:49:06;;;;;;;19.97;17.17;;;2.80;69.00;;;;;;5090423;28;20238;-89
2023/03/02 01:51:44;;;;;;;19.63;17.23;;;2.80;69.00;;;;;;5079555;28;20186;-87
2023/03/02 01:54:16;;;;;;;20.13;16.93;;;2.70;69.50;;;;;;5077303;28;20195;-88
2023/03/02 01:56:43;;;;;;;21.50;18.07;;;2.70;69.60;;;;;;5095228;28;20224;-88
2023/03/02 01:59:13;;;;;;;20.20;16.83;;;2.70;69.00;;;;;;5095589;28;20182;-87
2023/03/02 02:01:41;;;;;;;20.73;17.30;;;2.70;69.20;;;;;;5095435;28;20534;-87
2023/03/02 02:04:08;;;;;;;19.97;17.53;;;2.70;68.70;;;;;;5095094;28;20727;-87
2023/03/02 02:06:38;;;;;;;21.43;18.87;;;2.70;68.70;;;;;;5096241;28;20194;-87
2023/03/02 02:09:07;;;;;;;18.33;16.33;;;2.60;68.70;;;;;;5097217;28;20167;-88
2023/03/02 02:11:33;;;;;;;19.47;17.17;;;2.50;69.20;;;;;;5099857;28;20277;-87
2023/03/02 02:14:00;;;;;;;18.87;16.17;;;2.50;69.80;;;;;;5094844;28;20205;-87
2023/03/02 02:16:29;;;;;;;18.53;16.53;;;2.40;70.60;;;;;;5094159;28;20178;-87
2023/03/02 02:18:55;;;;;;;19.30;16.80;;;2.40;70.20;;;;;;5093890;28;20771;-87
2023/03/02 02:21:23;;;;;;;22.80;18.40;;;2.40;70.20;;;;;;5093748;28;20214;-88
2023/03/02 02:24:06;;;;;;;26.33;18.33;;;2.40;70.20;;;;;;5094406;28;20187;-87
2023/03/02 02:26:44;;;;;;;20.77;17.73;;;2.40;70.20;;;;;;5093866;28;20202;-88
2023/03/02 02:29:21;;;;;;;19.47;16.97;;;2.30;70.40;;;;;;5091810;28;20175;-87
2023/03/02 02:32:16;;;;;;;21.43;17.33;;;2.20;71.30;;;;;;5094507;28;20201;-86
2023/03/02 02:34:50;;;;;;;20.60;16.67;;;2.20;70.90;;;;;;5070950;28;20777;-87
2023/03/02 02:37:25;;;;;;;21.10;16.77;;;2.30;70.70;;;;;;5093802;28;20189;-87
2023/03/02 02:39:51;;;;;;;21.70;17.87;;;2.30;70.40;;;;;;5095103;28;20177;-87
2023/03/02 02:42:28;;;;;;;22.53;17.93;;;2.30;70.70;;;;;;5095487;28;20238;-87
2023/03/02 02:44:57;;;;;;;23.87;17.40;;;2.40;70.20;;;;;;5095576;28;20198;-88
2023/03/02 02:47:23;;;;;;;20.47;17.20;;;2.40;70.30;;;;;;5094772;28;20209;-88
2023/03/02 02:49:53;;;;;;;23.33;18.30;;;2.40;70.20;;;;;;5096535;28;20190;-88
2023/03/02 02:52:22;;;;;;;24.10;18.73;;;2.40;70.00;;;;;;5095362;28;20232;-88
2023/03/02 02:54:52;;;;;;;19.90;17.23;;;2.40;70.00;;;;;;5095588;28;20187;-87
2023/03/02 02:57:19;;;;;;;22.93;17.90;;;2.40;70.20;;;;;;5095956;28;20190;-87
2023/03/02 02:59:47;;;;;;;21.77;18.23;;;2.20;70.50;;;;;;5075787;28;20180;-87
2023/03/02 03:02:19;;;;;;;23.20;18.77;;;2.10;71.20;;;;;;5074530;28;20187;-87
2023/03/02 03:04:45;;;;;;;20.17;17.30;;;2.10;72.00;;;;;;5078188;28;20725;-87
2023/03/02 03:07:20;;;;;;;21.73;17.57;;;2.10;71.90;;;;;;5078205;28;20195;-88
2023/03/02 03:09:52;;;;;;;23.73;19.13;;;2.20;71.40;;;;;;5077197;28;20179;-89
2023/03/02 03:12:21;;;;;;;20.70;17.50;;;2.10;71.40;;;;;;5077388;28;20234;-88
2023/03/02 03:14:47;;;;;;;23.00;18.77;;;2.10;72.00;;;;;;5076804;28;20200;-85
2023/03/02 03:17:13;;;;;;;22.77;18.47;;;2.10;71.90;;;;;;5078142;28;20176;-87
2023/03/02 03:19:42;;;;;;;22.67;18.50;;;2.10;71.40;;;;;;5096599;28;20207;-87
2023/03/02 03:22:10;;;;;;;20.27;18.10;;;2.10;71.50;;;;;;5102156;28;20273;-87
2023/03/02 03:24:37;;;;;;;20.47;18.27;;;2.30;71.40;;;;;;5096847;28;20195;-86
2023/03/02 03:27:04;;;;;;;20.07;16.70;;;2.30;70.50;;;;;;5097630;28;20872;-87
2023/03/02 03:29:30;;;;;;;23.33;19.20;;;2.30;70.70;;;;;;5096854;28;20210;-86
2023/03/02 03:31:57;;;;;;;23.83;18.43;;;2.40;70.30;;;;;;5097208;28;20262;-86
2023/03/02 03:34:23;;;;;;;22.80;18.60;;;2.30;70.70;;;;;;5098153;28;20194;-88
2023/03/02 03:36:49;;;;;;;23.43;17.67;;;2.30;70.90;;;;;;5098110;28;20244;-87
2023/03/02 03:39:16;;;;;;;21.07;17.87;;;2.30;71.00;;;;;;5096566;28;20196;-88
2023/03/02 03:41:42;;;;;;;25.00;19.03;;;2.30;70.80;;;;;;5078615;28;20183;-87
2023/03/02 03:44:09;;;;;;;23.97;19.83;;;2.30;70.90;;;;;;5097958;28;20272;-87
2023/03/02 03:46:35;;;;;;;26.13;19.17;;;2.30;70.60;;;;;;5079384;28;20290;-88
2023/03/02 03:49:01;;;;;;;23.13;18.87;;;2.30;70.80;;;;;;5098309;28;20214;-87
2023/03/02 03:51:27;;;;;;;22.83;19.00;;;2.30;71.20;;;;;;5080343;28;20242;-87
2023/03/02 03:53:59;;;;;;;24.07;19.50;;;2.40;70.90;;;;;;5098225;28;20708;-87
2023/03/02 03:56:33;;;;;;;25.27;19.63;;;2.30;70.70;;;;;;5096813;28;20186;-88
2023/03/02 03:59:06;;;;;;;25.27;19.73;;;2.30;71.10;;;;;;5096371;28;20186;-88
2023/03/02 04:01:38;;;;;;;25.10;20.83;;;2.10;71.70;;;;;;5096107;28;20152;-88
2023/03/02 04:04:05;;;;;;;25.67;19.90;;;2.00;71.80;;;;;;5096491;28;20267;-87
2023/03/02 04:06:31;;;;;;;23.20;19.63;;;2.00;71.90;;;;;;5097290;28;20239;-87
2023/03/02 04:09:03;;;;;;;23.17;20.20;;;1.90;72.80;;;;;;5077663;28;20190;-87
2023/03/02 04:11:36;;;;;;;24.77;18.87;;;1.90;72.30;;;;;;5077237;28;20233;-88
2023/03/02 04:14:03;;;;;;;23.73;19.77;;;1.70;73.30;;;;;;5075282;28;20234;-87
2023/03/02 04:16:30;;;;;;;25.63;18.60;;;1.70;73.60;;;;;;5074485;28;20172;-87
2023/03/02 04:18:56;;;;;;;24.43;19.63;;;1.70;73.40;;;;;;5069152;28;20771;-88
2023/03/02 04:21:22;;;;;;;24.13;18.77;;;1.70;73.20;;;;;;5096318;28;20175;-87
2023/03/02 04:23:48;;;;;;;23.63;18.77;;;1.70;73.50;;;;;;5095536;28;20202;-87
2023/03/02 04:26:14;;;;;;;24.20;17.90;;;1.70;73.20;;;;;;5096839;28;20179;-87
2023/03/02 04:28:39;;;;;;;23.27;17.83;;;1.70;73.60;;;;;;5096714;28;20217;-87
2023/03/02 04:31:05;;;;;;;22.47;17.47;;;1.80;73.20;;;;;;5098054;28;20177;-87
2023/03/02 04:33:31;;;;;;;20.20;18.07;;;1.90;73.10;;;;;;5099401;28;20205;-86
2023/03/02 04:35:57;;;;;;;21.07;16.80;;;1.90;72.00;;;;;;5101535;28;20194;-88
2023/03/02 04:38:23;;;;;;;21.00;18.03;;;1.90;72.20;;;;;;5092730;28;20214;-87
2023/03/02 04:40:48;;;;;;;21.10;17.50;;;1.90;71.80;;;;;;5105672;28;20728;-87
2023/03/02 04:43:14;;;;;;;25.20;18.93;;;1.80;71.20;;;;;;5103908;28;20261;-90
2023/03/02 04:45:40;;;;;;;23.23;17.70;;;1.70;72.50;;;;;;5083248;28;20207;-88
2023/03/02 04:48:06;;;;;;;24.00;18.30;;;1.80;72.80;;;;;;5082737;28;20209;-87
2023/03/02 04:50:33;;;;;;;20.37;17.37;;;1.80;71.90;;;;;;5096710;28;20737;-88
2023/03/02 04:52:59;;;;;;;21.20;17.47;;;1.70;72.00;;;;;;5096659;28;20198;-88
2023/03/02 04:55:26;;;;;;;20.53;17.57;;;1.70;71.80;;;;;;5097671;28;20186;-87
2023/03/02 04:57:51;;;;;;;23.17;17.47;;;1.70;72.50;;;;;;5096813;28;20198;-88
2023/03/02 05:00:20;;;;;;;25.00;17.90;;;1.60;72.70;;;;;;5088121;28;20190;-88
2023/03/02 05:02:46;;;;;;;23.77;17.60;;;1.50;72.80;;;;;;5095886;28;20175;-88
2023/03/02 05:05:21;;;;;;;22.00;16.50;;;1.50;73.20;;;;;;5095544;28;20767;-88
2023/03/02 05:07:47;;;;;;;24.37;19.33;;;1.60;73.40;;;;;;5094533;28;20194;-86
2023/03/02 05:10:15;;;;;;;27.00;20.70;;;1.50;72.80;;;;;;5095687;28;20648;-88
2023/03/02 05:12:53;;;;;;;21.10;18.80;;;1.50;72.60;;;;;;5113001;23;20259;-84
2023/03/02 05:15:39;;;;;;;21.03;17.57;;;1.50;73.50;;;;;;5056590;28;20179;-84
2023/03/02 05:18:07;;;;;;;24.13;19.13;;;1.50;72.70;;;;;;5062332;28;20156;-85
2023/03/02 05:20:34;;;;;;;22.90;18.40;;;1.50;72.60;;;;;;5071303;28;20245;-85
2023/03/02 05:23:02;;;;;;;22.50;18.17;;;1.40;73.60;;;;;;5066747;28;20199;-85
2023/03/02 05:25:30;;;;;;;23.87;18.77;;;1.40;73.40;;;;;;5082312;28;20199;-83
2023/03/02 05:27:56;;;;;;;25.70;19.13;;;1.40;73.30;;;;;;5077942;28;20203;-84
2023/03/02 05:30:23;;;;;;;25.07;19.90;;;1.30;73.40;;;;;;5077025;28;20373;-84
2023/03/02 05:32:49;;;;;;;25.53;19.50;;;1.30;73.60;;;;;;5059030;28;20203;-80
2023/03/02 05:35:16;;;;;;;21.03;18.83;;;1.40;73.40;;;;;;5077582;28;20187;-82
2023/03/02 05:37:43;;;;;;;25.83;18.13;;;1.30;73.60;;;;;;5077441;28;20195;-80
2023/03/02 05:40:14;;;;;;;26.83;18.67;;;1.20;73.70;;;;;;5076514;28;20200;-83
2023/03/02 05:42:41;;;;;;;24.30;18.83;;;1.20;74.30;;;;;;5077985;28;20191;-83
2023/03/02 05:45:08;;;;;;;22.47;17.80;;;1.10;74.50;;;;;;5084848;28;20191;-82
2023/03/02 05:47:34;;;;;;;21.00;16.77;;;1.10;74.90;;;;;;5083714;28;20253;-83
2023/03/02 05:49:59;;;;;;;42.17;29.87;;;1.20;75.00;;;;;;5077807;28;20184;-83
2023/03/02 05:52:25;;;;;;;27.03;22.13;;;1.20;74.30;;;;;;5057939;28;20199;-82
2023/03/02 05:54:51;;;;;;;24.23;20.03;;;1.30;74.10;;;;;;5075392;28;20254;-81
2023/03/02 05:57:16;;;;;;;27.60;20.90;;;1.30;74.30;;;;;;5076125;28;20186;-83
2023/03/02 05:59:45;;;;;;;21.57;16.37;;;1.30;73.50;;;;;;5075004;28;20319;-82
2023/03/02 06:02:11;;;;;;;22.97;18.93;;;1.30;73.40;;;;;;5074605;28;20207;-83
2023/03/02 06:04:42;;;;;;;21.73;17.13;;;1.30;73.60;;;;;;5080358;28;20214;-84
2023/03/02 06:07:10;;;;;;;23.30;18.10;;;1.40;73.60;;;;;;5086364;28;20230;-85
2023/03/02 06:09:37;;;;;;;23.63;18.30;;;1.30;73.80;;;;;;5082478;28;20176;-84
2023/03/02 06:12:03;;;;;;;29.70;26.50;;;1.30;73.30;;;;;;5078277;28;20215;-82
2023/03/02 06:14:29;;;;;;;31.87;27.30;;;1.30;73.20;;;;;;5074626;28;20587;-83
2023/03/02 06:16:54;;;;;;;34.33;29.30;;;1.20;73.50;;;;;;5074203;28;20207;-84
2023/03/02 06:19:20;;;;;;;27.67;22.20;;;1.20;74.10;;;;;;5073180;28;20237;-79
2023/03/02 06:21:45;;;;;;;31.17;22.97;;;1.10;74.70;;;;;;5077892;28;20191;-84
2023/03/02 06:24:11;;;;;;;33.90;27.57;;;1.20;74.90;;;;;;5078595;28;20228;-85
2023/03/02 06:26:36;;;;;;;373.80;153.47;;;1.20;74.40;;;;;;5080196;28;20208;-86
2023/03/02 06:29:04;;;;;;;73.07;35.03;;;1.30;74.60;;;;;;5078723;28;20206;-79
2023/03/02 06:31:30;;;;;;;42.67;23.50;;;1.40;73.30;;;;;;5060274;28;20176;-85
2023/03/02 06:33:56;;;;;;;112.23;29.83;;;1.40;73.50;;;;;;5062879;28;20211;-83
2023/03/02 06:36:22;;;;;;;132.70;32.87;;;1.50;73.50;;;;;;5082119;28;20214;-83
2023/03/02 06:38:48;;;;;;;50.27;24.07;;;1.40;73.10;;;;;;5066430;28;20197;-81
2023/03/02 06:41:14;;;;;;;21.83;18.07;;;1.40;73.10;;;;;;5083914;28;20278;-82
2023/03/02 06:43:40;;;;;;;25.43;18.87;;;1.50;72.60;;;;;;5085444;28;20203;-82
2023/03/02 06:46:05;;;;;;;24.57;19.20;;;1.60;72.50;;;;;;5065462;28;20198;-80
2023/03/02 06:48:31;;;;;;;28.37;22.20;;;1.60;72.00;;;;;;5083381;28;20206;-77
2023/03/02 06:50:57;;;;;;;37.70;27.90;;;1.60;71.70;;;;;;5064041;28;20172;-82
2023/03/02 06:53:22;;;;;;;32.30;23.63;;;1.50;72.20;;;;;;5081408;28;20268;-81
2023/03/02 06:55:49;;;;;;;32.40;23.13;;;1.50;71.90;;;;;;5061862;28;20176;-84
2023/03/02 06:58:15;;;;;;;32.20;22.17;;;1.40;72.10;;;;;;5062436;28;20654;-82
2023/03/02 07:00:40;;;;;;;31.67;25.00;;;1.50;72.20;;;;;;5079979;28;20244;-82
2023/03/02 07:03:06;;;;;;;25.07;20.67;;;1.50;72.30;;;;;;5080900;28;20214;-82
2023/03/02 07:05:32;;;;;;;24.87;19.33;;;1.40;72.20;;;;;;5079287;28;20184;-80
2023/03/02 07:07:58;;;;;;;24.90;19.47;;;1.50;72.40;;;;;;5077194;28;20191;-82
2023/03/02 07:10:24;;;;;;;31.03;21.33;;;1.50;72.20;;;;;;5077182;28;20186;-80
2023/03/02 07:12:51;;;;;;;24.37;18.57;;;1.50;72.10;;;;;;5077631;28;20290;-82
2023/03/02 07:15:17;;;;;;;24.43;20.50;;;1.40;72.40;;;;;;5076398;28;20203;-81
2023/03/02 07:17:44;;;;;;;25.47;19.57;;;1.50;72.60;;;;;;5076769;28;20203;-83
2023/03/02 07:20:12;;;;;;;27.13;20.73;;;1.50;72.70;;;;;;5079609;28;20179;-83
2023/03/02 07:22:38;;;;;;;26.77;19.87;;;1.50;72.40;;;;;;5079817;28;20191;-80
2023/03/02 07:25:04;;;;;;;28.90;20.60;;;1.60;72.40;;;;;;5078835;28;20186;-81
2023/03/02 07:27:30;;;;;;;28.50;19.13;;;1.60;72.60;;;;;;5083689;28;20200;-80
2023/03/02 07:29:56;;;;;;;27.00;20.03;;;1.70;72.40;;;;;;5070880;28;20187;-79
2023/03/02 07:32:21;;;;;;;23.33;18.03;;;1.70;71.80;;;;;;5083790;28;20203;-81
2023/03/02 07:34:47;;;;;;;24.73;18.30;;;1.70;72.00;;;;;;5080823;28;20270;-80
2023/03/02 07:37:13;;;;;;;77.30;23.33;;;1.70;72.00;;;;;;5083956;28;20176;-81
2023/03/02 07:39:38;;;;;;;33.37;19.10;;;1.70;72.50;;;;;;5083934;28;20718;-80
2023/03/02 07:42:07;;;;;;;35.53;19.80;;;1.80;71.90;;;;;;5079126;28;20238;-81
2023/03/02 07:44:33;;;;;;;60.57;22.30;;;1.90;71.90;;;;;;5081192;28;20294;-82
2023/03/02 07:46:59;;;;;;;25.27;18.67;;;1.90;71.70;;;;;;5079600;28;20586;-80
2023/03/02 07:49:25;;;;;;;28.67;19.87;;;1.90;71.10;;;;;;5082902;28;20211;-80
2023/03/02 07:51:51;;;;;;;23.33;18.03;;;1.90;71.60;;;;;;5084802;28;20460;-81
2023/03/02 07:54:16;;;;;;;24.13;19.30;;;2.00;71.00;;;;;;5080531;28;20254;-83
2023/03/02 07:56:42;;;;;;;25.67;18.30;;;2.00;71.40;;;;;;5080700;28;20207;-82
2023/03/02 07:59:08;;;;;;;38.33;20.17;;;1.90;71.10;;;;;;5082936;28;20214;-83
2023/03/02 08:01:33;;;;;;;30.77;18.53;;;1.90;72.00;;;;;;5082232;28;20198;-84
2023/03/02 08:03:59;;;;;;;28.03;19.33;;;2.00;71.80;;;;;;5084365;28;20179;-86
2023/03/02 08:06:25;;;;;;;30.33;19.37;;;2.20;71.40;;;;;;5083516;28;20168;-85
2023/03/02 08:08:50;;;;;;;24.63;19.23;;;2.10;71.50;;;;;;5083361;28;20199;-83
2023/03/02 08:11:17;;;;;;;27.97;19.20;;;2.20;71.30;;;;;;5084567;28;20178;-84
2023/03/02 08:13:43;;;;;;;22.60;19.60;;;2.20;70.90;;;;;;5086724;28;20237;-86
2023/03/02 08:16:11;;;;;;;25.93;18.97;;;2.30;70.90;;;;;;5090418;28;20195;-90
2023/03/02 08:18:38;;;;;;;26.40;20.20;;;2.40;70.70;;;;;;5087124;28;20280;-85
2023/03/02 08:21:13;;;;;;;27.00;19.63;;;2.40;70.10;;;;;;5087007;28;20180;-86
2023/03/02 08:23:40;;;;;;;23.77;19.90;;;2.50;70.90;;;;;;5084958;28;20277;-86
2023/03/02 08:26:05;;;;;;;25.00;19.23;;;2.50;70.40;;;;;;5083271;28;20219;-87
2023/03/02 08:28:31;;;;;;;23.20;18.70;;;2.60;70.10;;;;;;5085767;28;20218;-81
2023/03/02 08:30:59;;;;;;;25.27;19.73;;;2.70;69.80;;;;;;5070112;28;20195;-85
2023/03/02 08:33:26;;;;;;;27.00;21.03;;;2.80;69.50;;;;;;5088527;28;20294;-84
2023/03/02 08:35:57;;;;;;;24.00;19.67;;;2.80;69.70;;;;;;5086263;28;20305;-82
2023/03/02 08:38:23;;;;;;;28.10;19.33;;;3.00;69.30;;;;;;5087795;28;20183;-83
2023/03/02 08:40:51;;;;;;;26.43;19.43;;;3.00;68.60;;;;;;5086808;28;20191;-81
2023/03/02 08:43:17;;;;;;;26.83;19.17;;;3.00;68.40;;;;;;5085048;28;20192;-83
2023/03/02 08:45:42;;;;;;;24.87;20.10;;;3.00;69.20;;;;;;5083125;28;20184;-80
2023/03/02 08:48:08;;;;;;;25.70;21.10;;;3.10;69.10;;;;;;5083752;28;20218;-82
2023/03/02 08:50:33;;;;;;;23.70;19.20;;;3.20;68.30;;;;;;5081166;28;20191;-81
2023/03/02 08:52:59;;;;;;;27.03;19.47;;;3.30;68.00;;;;;;5079881;28;20200;-81
2023/03/02 08:55:25;;;;;;;28.93;20.13;;;3.30;68.50;;;;;;5079061;28;20175;-83
2023/03/02 08:57:50;;;;;;;25.70;20.37;;;3.50;68.30;;;;;;5082479;28;20255;-80
2023/03/02 09:00:17;;;;;;;28.40;20.60;;;3.50;67.60;;;;;;5086342;28;20251;-82
2023/03/02 09:02:43;;;;;;;24.27;19.20;;;3.50;67.80;;;;;;5083628;28;20230;-85
2023/03/02 09:05:09;;;;;;;33.57;21.47;;;3.60;67.40;;;;;;5060149;28;20475;-81
2023/03/02 09:07:34;;;;;;;22.53;19.17;;;3.70;66.80;;;;;;5081500;28;20227;-83
2023/03/02 09:10:00;;;;;;;23.47;19.50;;;3.70;66.80;;;;;;5085616;28;20801;-82
2023/03/02 09:12:26;;;;;;;25.20;19.70;;;3.70;66.70;;;;;;5088852;28;20223;-85
2023/03/02 09:14:51;;;;;;;27.37;20.73;;;3.80;66.40;;;;;;5089670;28;20182;-83
2023/03/02 09:17:17;;;;;;;26.43;19.33;;;3.90;66.10;;;;;;5084777;28;20183;-84
2023/03/02 09:19:42;;;;;;;23.17;19.30;;;3.90;66.70;;;;;;5080340;28;20192;-81
2023/03/02 09:22:08;;;;;;;27.13;19.83;;;4.10;66.10;;;;;;5080254;28;20204;-82
2023/03/02 09:24:35;;;;;;;23.00;19.57;;;4.30;65.40;;;;;;5078693;28;20196;-79
2023/03/02 09:27:01;;;;;;;22.43;18.97;;;4.50;64.80;;;;;;5080518;28;20214;-82
2023/03/02 09:29:27;;;;;;;29.90;20.03;;;4.50;65.50;;;;;;5078536;28;20188;-82
2023/03/02 09:31:53;;;;;;;23.73;20.13;;;4.70;64.50;;;;;;5079747;28;20226;-82
2023/03/02 09:34:19;;;;;;;27.33;20.37;;;4.70;65.30;;;;;;5079875;28;20180;-83
2023/03/02 09:36:44;;;;;;;28.30;19.03;;;4.80;64.40;;;;;;5079820;28;20184;-81
2023/03/02 09:39:11;;;;;;;24.10;19.13;;;5.00;63.70;;;;;;5078881;28;20175;-83
2023/03/02 09:42:10;;;;;;;27.97;20.77;;;5.10;62.60;;;;;;5062479;28;20175;-81
2023/03/02 09:44:59;;;;;;;24.17;20.20;;;5.20;63.70;;;;;;5077714;28;20180;-82
2023/03/02 09:47:55;;;;;;;28.60;19.17;;;5.40;62.50;;;;;;5077124;28;20256;-79
2023/03/02 09:50:36;;;;;;;24.77;20.20;;;5.60;61.10;;;;;;5077467;28;20493;-85
2023/03/02 09:53:34;;;;;;;24.93;20.37;;;5.60;62.20;;;;;;5080936;28;20214;-81
2023/03/02 09:56:01;;;;;;;24.57;21.03;;;5.50;61.60;;;;;;5079850;28;20250;-84
2023/03/02 09:58:39;;;;;;;26.40;21.30;;;5.50;61.70;;;;;;5085343;28;20221;-84
2023/03/02 10:01:14;;;;;;;24.57;19.13;;;5.50;62.20;;;;;;5093161;28;20171;-87
2023/03/02 10:03:59;;;;;;;22.83;19.70;;;5.80;61.00;;;;;;5091385;28;20194;-88
2023/03/02 10:06:25;;;;;;;21.83;19.33;;;6.10;59.70;;;;;;5089507;28;20171;-86
2023/03/02 10:08:51;;;;;;;25.60;20.40;;;6.30;59.80;;;;;;5065968;28;20207;-85
2023/03/02 10:11:39;;;;;;;24.23;19.90;;;6.70;57.60;;;;;;5084766;28;20218;-85
2023/03/02 10:14:19;;;;;;;22.90;19.87;;;6.80;56.30;;;;;;5065281;28;20188;-83
2023/03/02 10:17:05;;;;;;;24.83;20.23;;;6.80;56.60;;;;;;5071850;28;20178;-83
2023/03/02 10:19:41;;;;;;;24.97;20.10;;;7.00;56.50;;;;;;5074839;28;20460;-82
2023/03/02 10:22:42;;;;;;;23.07;19.97;;;7.00;56.10;;;;;;5072227;28;20198;-85
2023/03/02 10:25:41;;;;;;;24.20;20.67;;;6.90;57.40;;;;;;5081002;28;20193;-85
2023/03/02 10:28:15;;;;;;;24.33;20.43;;;6.60;58.50;;;;;;5078093;28;20255;-84
2023/03/02 10:30:41;;;;;;;24.27;20.43;;;6.80;57.70;;;;;;5078501;28;20175;-81
2023/03/02 10:33:15;;;;;;;33.43;21.37;;;7.00;57.00;;;;;;5078447;28;20222;-84
2023/03/02 10:35:48;;;;;;;24.07;19.33;;;7.10;56.40;;;;;;5080531;28;20159;-84
2023/03/02 10:38:15;;;;;;;23.57;20.03;;;7.10;56.00;;;;;;5087013;28;20395;-80
2023/03/02 10:40:58;;;;;;;25.20;20.70;;;7.10;56.20;;;;;;5092606;28;20339;-84
2023/03/02 10:43:35;;;;;;;25.60;20.13;;;7.00;56.90;;;;;;5083322;28;20919;-87
2023/03/02 10:46:07;;;;;;;26.37;20.37;;;7.30;56.60;;;;;;5064310;28;20180;-84
2023/03/02 10:48:46;;;;;;;22.03;19.53;;;7.30;55.80;;;;;;5076307;28;20578;-82
2023/03/02 10:51:24;;;;;;;23.70;20.97;;;7.30;56.50;;;;;;5076448;28;20663;-85
2023/03/02 10:54:02;;;;;;;23.47;20.17;;;7.40;57.50;;;;;;5076481;28;20195;-81
2023/03/02 10:56:29;;;;;;;24.83;20.63;;;7.30;57.40;;;;;;5074942;28;20217;-85
2023/03/02 10:59:01;;;;;;;24.60;21.77;;;7.30;57.50;;;;;;5074934;28;20768;-83
2023/03/02 11:01:28;;;;;;;23.47;20.83;;;7.40;57.10;;;;;;5074493;28;20158;-83
2023/03/02 11:03:56;;;;;;;35.03;23.30;;;7.60;56.50;;;;;;5075769;28;20602;-81
2023/03/02 11:06:22;;;;;;;23.63;20.80;;;7.80;55.80;;;;;;5077632;28;20735;-83
2023/03/02 11:09:06;;;;;;;28.03;21.57;;;7.70;56.00;;;;;;5077167;28;20211;-82
2023/03/02 11:11:35;;;;;;;23.27;20.27;;;8.00;54.80;;;;;;5073679;28;20171;-83
2023/03/02 11:14:15;;;;;;;24.23;21.60;;;8.10;54.60;;;;;;5074865;28;20180;-82
2023/03/02 11:16:41;;;;;;;25.50;22.03;;;8.10;55.10;;;;;;5075696;28;20171;-83
2023/03/02 11:19:15;;;;;;;23.50;21.10;;;8.20;54.70;;;;;;5075495;28;20172;-83
2023/03/02 11:21:59;;;;;;;24.53;21.67;;;8.30;54.60;;;;;;5075418;28;20202;-83
2023/03/02 11:27:06;;;;;;;23.80;21.23;;;8.60;53.70;;;;;;5098370;23;20241;-85
2023/03/02 11:29:37;;;;;;;25.27;22.57;;;9.10;50.60;;;;;;5069077;28;20176;-85
2023/03/02 11:32:07;;;;;;;24.20;20.50;;;9.00;51.00;;;;;;5084256;28;20255;-85
2023/03/02 11:34:45;;;;;;;26.40;23.60;;;9.20;50.10;;;;;;5084772;28;20275;-87
2023/03/02 11:37:19;;;;;;;24.90;22.03;;;9.10;51.80;;;;;;5075846;28;20191;-85
2023/03/02 11:39:48;;;;;;;23.40;20.93;;;9.30;50.30;;;;;;5082520;28;20168;-84
2023/03/02 11:42:31;;;;;;;24.00;21.40;;;9.40;50.80;;;;;;5065091;28;20202;-84
2023/03/02 11:45:21;;;;;;;24.53;21.97;;;9.80;48.60;;;;;;5081509;28;20199;-85
2023/03/02 11:47:56;;;;;;;25.10;22.50;;;10.20;48.30;;;;;;5064216;28;20948;-84
2023/03/02 11:50:22;;;;;;;26.00;22.93;;;10.50;46.20;;;;;;5060771;28;20190;-85
2023/03/02 11:53:00;;;;;;;24.37;21.80;;;10.00;48.10;;;;;;5061017;28;20184;-85
2023/03/02 11:55:27;;;;;;;31.57;23.23;;;9.70;49.00;;;;;;5060859;28;20306;-85
2023/03/02 11:57:58;;;;;;;23.30;20.73;;;10.00;48.70;;;;;;5060145;28;20646;-85
2023/03/02 12:00:53;;;;;;;24.73;21.77;;;10.50;46.30;;;;;;5061370;28;20184;-84
2023/03/02 12:03:43;;;;;;;23.53;21.20;;;11.00;44.40;;;;;;5060031;28;20541;-85
2023/03/02 12:06:21;;;;;;;25.73;23.00;;;11.00;44.10;;;;;;5061910;28;20228;-84
2023/03/02 12:08:50;;;;;;;24.63;22.13;;;10.90;45.20;;;;;;5041870;28;20263;-84
2023/03/02 12:11:16;;;;;;;23.77;21.37;;;10.60;46.20;;;;;;5052776;28;20543;-84
2023/03/02 12:13:57;;;;;;;25.70;22.97;;;10.30;46.90;;;;;;5053404;28;20176;-84
2023/03/02 12:16:33;;;;;;;26.23;23.43;;;10.60;46.30;;;;;;5055244;28;20737;-85
2023/03/02 12:19:11;;;;;;;24.27;21.77;;;10.60;45.40;;;;;;5054269;28;20179;-85
2023/03/02 12:21:42;;;;;;;24.43;21.97;;;10.20;46.90;;;;;;5052446;28;20188;-85
2023/03/02 12:24:25;;;;;;;24.83;21.93;;;10.10;47.50;;;;;;5053418;28;20192;-85
2023/03/02 12:27:01;;;;;;;25.10;22.40;;;10.30;47.60;;;;;;5072228;28;20256;-86
2023/03/02 12:29:44;;;;;;;24.07;21.67;;;11.20;44.90;;;;;;5075640;28;20182;-85
2023/03/02 12:32:17;;;;;;;25.87;23.20;;;11.90;43.40;;;;;;5076088;28;20190;-85
2023/03/02 12:35:01;;;;;;;26.00;23.23;;;12.10;41.80;;;;;;5076988;28;20185;-86
2023/03/02 12:37:46;;;;;;;26.67;23.90;;;11.70;43.00;;;;;;5075381;28;20175;-84
2023/03/02 12:40:12;;;;;;;27.43;24.53;;;12.10;41.80;;;;;;5076355;28;20181;-85
2023/03/02 12:42:46;;;;;;;25.73;23.10;;;11.30;44.00;;;;;;5072229;28;20190;-85
2023/03/02 12:45:40;;;;;;;26.07;23.47;;;11.00;44.80;;;;;;5080142;28;20221;-85
2023/03/02 12:48:23;;;;;;;24.63;22.37;;;10.50;46.40;;;;;;5069160;28;20211;-83
2023/03/02 12:50:53;;;;;;;26.10;23.37;;;10.40;46.10;;;;;;5077300;28;20240;-85